createdAt,value
2019-04-16T00:00:51.441Z,1022.92
2019-04-16T00:01:51.408Z,1022.95
2019-04-16T00:02:52.193Z,1022.79
2019-04-16T00:03:53.806Z,1022.80
2019-04-16T00:04:53.655Z,1022.84
2019-04-16T00:05:51.281Z,1022.83
2019-04-16T00:06:51.250Z,1022.83
2019-04-16T00:07:51.216Z,1022.79
2019-04-16T00:08:51.187Z,1022.81
2019-04-16T00:09:51.153Z,1022.83
2019-04-16T00:10:51.119Z,1022.78
2019-04-16T00:11:51.093Z,1022.78
2019-04-16T00:12:51.062Z,1022.78
2019-04-16T00:13:51.029Z,1022.81
2019-04-16T00:14:50.992Z,1022.75
2019-04-16T00:15:50.961Z,1022.78
2019-04-16T00:16:50.946Z,1022.71
2019-04-16T00:17:50.898Z,1022.72
2019-04-16T00:18:57.905Z,1022.72
2019-04-16T00:19:50.831Z,1022.72
2019-04-16T00:20:50.799Z,1022.65
2019-04-16T00:21:50.766Z,1022.63
2019-04-16T00:22:50.740Z,1022.65
2019-04-16T00:23:50.708Z,1022.61
2019-04-16T00:24:50.671Z,1022.62
2019-04-16T00:25:52.050Z,1022.63
2019-04-16T00:26:50.604Z,1022.61
2019-04-16T00:27:50.575Z,1022.56
2019-04-16T00:28:50.541Z,1022.58
2019-04-16T00:29:50.509Z,1022.56
2019-04-16T00:30:50.476Z,1022.59
2019-04-16T00:31:50.457Z,1022.56
2019-04-16T00:32:50.411Z,1022.51
2019-04-16T00:33:50.380Z,1022.51
2019-04-16T00:34:50.349Z,1022.55
2019-04-16T00:35:50.315Z,1022.55
2019-04-16T00:36:50.285Z,1022.50
2019-04-16T00:37:51.670Z,1022.56
2019-04-16T00:38:53.831Z,1022.54
2019-04-16T00:39:50.185Z,1022.50
2019-04-16T00:40:50.154Z,1022.52
2019-04-16T00:41:50.124Z,1022.51
2019-04-16T00:42:50.089Z,1022.52
2019-04-16T00:43:50.060Z,1022.47
2019-04-16T00:44:50.027Z,1022.53
2019-04-16T00:45:49.994Z,1022.52
2019-04-16T00:46:49.963Z,1022.53
2019-04-16T00:47:51.455Z,1022.51
2019-04-16T00:48:49.930Z,1022.47
2019-04-16T00:49:49.863Z,1022.44
2019-04-16T00:50:49.830Z,1022.47
2019-04-16T00:51:49.806Z,1022.50
2019-04-16T00:52:49.765Z,1022.50
2019-04-16T00:53:49.737Z,1022.50
2019-04-16T00:54:49.703Z,1022.49
2019-04-16T00:55:49.668Z,1022.51
2019-04-16T00:56:49.639Z,1022.52
2019-04-16T00:57:49.607Z,1022.52
2019-04-16T00:58:52.219Z,1022.52
2019-04-16T00:59:49.545Z,1022.51
2019-04-16T01:00:49.507Z,1022.51
2019-04-16T01:01:49.475Z,1022.47
2019-04-16T01:02:49.443Z,1022.47
2019-04-16T01:03:49.408Z,1022.46
2019-04-16T01:04:49.375Z,1022.49
2019-04-16T01:05:49.346Z,1022.48
2019-04-16T01:06:49.311Z,1022.49
2019-04-16T01:07:49.281Z,1022.42
2019-04-16T01:08:54.936Z,1022.50
2019-04-16T01:09:49.215Z,1022.48
2019-04-16T01:10:49.187Z,1022.49
2019-04-16T01:11:49.746Z,1022.51
2019-04-16T01:12:49.117Z,1022.50
2019-04-16T01:13:49.084Z,1022.54
2019-04-16T01:14:49.054Z,1022.55
2019-04-16T01:15:49.022Z,1022.53
2019-04-16T01:16:48.990Z,1022.50
2019-04-16T01:17:48.954Z,1022.55
2019-04-16T01:18:48.920Z,1022.54
2019-04-16T01:19:48.889Z,1022.54
2019-04-16T01:20:48.870Z,1022.52
2019-04-16T01:21:48.823Z,1022.52
2019-04-16T01:22:48.793Z,1022.50
2019-04-16T01:23:49.575Z,1022.49
2019-04-16T01:24:51.749Z,1022.51
2019-04-16T01:25:48.694Z,1022.45
2019-04-16T01:26:48.660Z,1022.48
2019-04-16T01:27:48.631Z,1022.46
2019-04-16T01:28:48.597Z,1022.48
2019-04-16T01:29:48.563Z,1022.45
2019-04-16T01:30:48.533Z,1022.43
2019-04-16T01:31:48.497Z,1022.44
2019-04-16T01:32:48.465Z,1022.45
2019-04-16T01:33:48.434Z,1022.42
2019-04-16T01:34:48.511Z,1022.40
2019-04-16T01:35:51.508Z,1022.42
2019-04-16T01:36:48.336Z,1022.45
2019-04-16T01:37:48.304Z,1022.42
2019-04-16T01:38:48.270Z,1022.45
2019-04-16T01:39:48.330Z,1022.42
2019-04-16T01:40:50.123Z,1022.43
2019-04-16T01:41:50.312Z,1022.45
2019-04-16T01:42:48.138Z,1022.48
2019-04-16T01:43:48.108Z,1022.43
2019-04-16T01:44:48.074Z,1022.47
2019-04-16T01:45:48.042Z,1022.45
2019-04-16T01:46:48.009Z,1022.46
2019-04-16T01:47:47.975Z,1022.49
2019-04-16T01:48:47.943Z,1022.43
2019-04-16T01:49:47.911Z,1022.45
2019-04-16T01:50:47.878Z,1022.46
2019-04-16T01:51:48.137Z,1022.45
2019-04-16T01:52:50.321Z,1022.45
2019-04-16T01:53:49.486Z,1022.47
2019-04-16T01:54:47.747Z,1022.45
2019-04-16T01:55:47.713Z,1022.43
2019-04-16T01:56:47.682Z,1022.41
2019-04-16T01:57:47.651Z,1022.41
2019-04-16T01:58:47.616Z,1022.42
2019-04-16T01:59:47.588Z,1022.42
2019-04-16T02:00:47.570Z,1022.45
2019-04-16T02:01:47.519Z,1022.38
2019-04-16T02:02:47.492Z,1022.42
2019-04-16T02:03:48.896Z,1022.41
2019-04-16T02:04:48.458Z,1022.36
2019-04-16T02:05:47.388Z,1022.40
2019-04-16T02:06:47.352Z,1022.36
2019-04-16T02:07:47.322Z,1022.37
2019-04-16T02:08:47.289Z,1022.36
2019-04-16T02:09:47.255Z,1022.34
2019-04-16T02:10:47.229Z,1022.36
2019-04-16T02:11:47.191Z,1022.35
2019-04-16T02:12:47.165Z,1022.34
2019-04-16T02:13:47.129Z,1022.35
2019-04-16T02:14:47.368Z,1022.34
2019-04-16T02:15:47.058Z,1022.32
2019-04-16T02:16:47.028Z,1022.34
2019-04-16T02:17:46.997Z,1022.38
2019-04-16T02:18:46.961Z,1022.41
2019-04-16T02:19:46.930Z,1022.37
2019-04-16T02:20:46.895Z,1022.34
2019-04-16T02:21:46.862Z,1022.37
2019-04-16T02:22:46.835Z,1022.39
2019-04-16T02:23:48.096Z,1022.34
2019-04-16T02:24:47.788Z,1022.32
2019-04-16T02:25:48.552Z,1022.33
2019-04-16T02:26:46.850Z,1022.35
2019-04-16T02:27:46.667Z,1022.33
2019-04-16T02:28:46.630Z,1022.33
2019-04-16T02:29:46.599Z,1022.32
2019-04-16T02:30:46.570Z,1022.32
2019-04-16T02:31:47.877Z,1022.27
2019-04-16T02:32:46.500Z,1022.32
2019-04-16T02:33:46.466Z,1022.36
2019-04-16T02:34:46.433Z,1022.34
2019-04-16T02:35:46.402Z,1022.35
2019-04-16T02:36:46.367Z,1022.36
2019-04-16T02:37:46.344Z,1022.36
2019-04-16T02:38:52.517Z,1022.35
2019-04-16T02:39:48.260Z,1022.34
2019-04-16T02:40:51.666Z,1022.34
2019-04-16T02:41:46.204Z,1022.36
2019-04-16T02:42:46.181Z,1022.36
2019-04-16T02:43:46.158Z,1022.30
2019-04-16T02:44:49.834Z,1022.35
2019-04-16T02:45:46.071Z,1022.37
2019-04-16T02:46:46.036Z,1022.32
2019-04-16T02:47:46.010Z,1022.37
2019-04-16T02:48:49.993Z,1022.34
2019-04-16T02:49:45.942Z,1022.35
2019-04-16T02:50:45.913Z,1022.36
2019-04-16T02:51:45.871Z,1022.37
2019-04-16T02:52:50.218Z,1022.32
2019-04-16T02:53:45.808Z,1022.34
2019-04-16T02:54:45.783Z,1022.33
2019-04-16T02:55:45.739Z,1022.34
2019-04-16T02:56:51.702Z,1022.32
2019-04-16T02:57:45.875Z,1022.33
2019-04-16T02:58:45.641Z,1022.31
2019-04-16T02:59:47.415Z,1022.35
2019-04-16T03:00:49.121Z,1022.29
2019-04-16T03:01:45.541Z,1022.29
2019-04-16T03:02:45.505Z,1022.34
2019-04-16T03:03:45.475Z,1022.30
2019-04-16T03:04:45.443Z,1022.25
2019-04-16T03:05:45.410Z,1022.23
2019-04-16T03:06:45.381Z,1022.24
2019-04-16T03:07:45.344Z,1022.30
2019-04-16T03:08:45.308Z,1022.27
2019-04-16T03:09:45.275Z,1022.18
2019-04-16T03:10:45.406Z,1022.19
2019-04-16T03:11:45.560Z,1022.22
2019-04-16T03:12:45.176Z,1022.22
2019-04-16T03:13:45.143Z,1022.17
2019-04-16T03:14:45.112Z,1022.14
2019-04-16T03:15:45.076Z,1022.18
2019-04-16T03:16:45.046Z,1022.12
2019-04-16T03:17:45.010Z,1022.16
2019-04-16T03:18:47.365Z,1022.16
2019-04-16T03:19:44.944Z,1022.15
2019-04-16T03:20:44.909Z,1022.19
2019-04-16T03:21:44.878Z,1022.15
2019-04-16T03:22:44.842Z,1022.18
2019-04-16T03:23:44.809Z,1022.10
2019-04-16T03:24:44.777Z,1022.12
2019-04-16T03:25:45.186Z,1022.11
2019-04-16T03:26:47.586Z,1022.09
2019-04-16T03:27:44.677Z,1022.11
2019-04-16T03:28:44.648Z,1022.08
2019-04-16T03:29:44.612Z,1022.07
2019-04-16T03:30:44.578Z,1022.07
2019-04-16T03:31:44.545Z,1022.05
2019-04-16T03:32:44.517Z,1022.04
2019-04-16T03:33:50.465Z,1022.08
2019-04-16T03:34:44.445Z,1022.02
2019-04-16T03:35:44.410Z,1022.05
2019-04-16T03:36:44.383Z,1022.08
2019-04-16T03:37:44.347Z,1022.06
2019-04-16T03:38:44.324Z,1021.99
2019-04-16T03:39:45.013Z,1021.98
2019-04-16T03:40:44.244Z,1021.98
2019-04-16T03:41:44.211Z,1021.99
2019-04-16T03:42:44.179Z,1021.97
2019-04-16T03:43:44.143Z,1021.95
2019-04-16T03:44:44.110Z,1021.95
2019-04-16T03:45:44.078Z,1021.98
2019-04-16T03:46:46.895Z,1021.97
2019-04-16T03:47:44.011Z,1021.99
2019-04-16T03:48:43.979Z,1022.00
2019-04-16T03:49:43.944Z,1021.98
2019-04-16T03:50:43.911Z,1021.95
2019-04-16T03:51:43.878Z,1021.99
2019-04-16T03:52:45.751Z,1021.96
2019-04-16T03:53:46.550Z,1021.98
2019-04-16T03:54:43.776Z,1021.96
2019-04-16T03:55:43.752Z,1021.97
2019-04-16T03:56:43.713Z,1021.98
2019-04-16T03:57:43.677Z,1021.94
2019-04-16T03:58:43.644Z,1021.98
2019-04-16T03:59:43.613Z,1021.98
2019-04-16T04:00:44.285Z,1021.99
2019-04-16T04:01:46.039Z,1022.00
2019-04-16T04:02:43.512Z,1021.98
2019-04-16T04:03:43.476Z,1021.95
2019-04-16T04:04:43.444Z,1021.93
2019-04-16T04:05:43.414Z,1021.93
2019-04-16T04:06:43.377Z,1021.93
2019-04-16T04:07:44.113Z,1021.93
2019-04-16T04:08:47.883Z,1021.96
2019-04-16T04:09:43.279Z,1021.91
2019-04-16T04:10:43.243Z,1021.91
2019-04-16T04:11:43.209Z,1021.94
2019-04-16T04:12:45.699Z,1021.96
2019-04-16T04:13:43.143Z,1021.91
2019-04-16T04:14:43.110Z,1021.89
2019-04-16T04:15:43.077Z,1021.88
2019-04-16T04:16:43.045Z,1021.86
2019-04-16T04:17:43.011Z,1021.86
2019-04-16T04:18:43.869Z,1021.88
2019-04-16T04:19:43.474Z,1021.87
2019-04-16T04:20:42.911Z,1021.91
2019-04-16T04:21:42.882Z,1021.91
2019-04-16T04:22:42.849Z,1021.91
2019-04-16T04:23:42.810Z,1021.90
2019-04-16T04:24:42.777Z,1021.91
2019-04-16T04:25:42.754Z,1021.85
2019-04-16T04:26:42.710Z,1021.88
2019-04-16T04:27:43.564Z,1021.92
2019-04-16T04:28:42.643Z,1021.89
2019-04-16T04:29:42.611Z,1021.84
2019-04-16T04:30:42.575Z,1021.89
2019-04-16T04:31:42.544Z,1021.86
2019-04-16T04:32:42.512Z,1021.86
2019-04-16T04:33:43.080Z,1021.88
2019-04-16T04:34:42.444Z,1021.91
2019-04-16T04:35:42.412Z,1021.89
2019-04-16T04:36:42.376Z,1021.92
2019-04-16T04:37:42.344Z,1021.91
2019-04-16T04:38:42.311Z,1021.95
2019-04-16T04:39:44.263Z,1021.92
2019-04-16T04:40:44.805Z,1021.92
2019-04-16T04:41:42.211Z,1021.90
2019-04-16T04:42:42.177Z,1021.92
2019-04-16T04:43:42.150Z,1021.89
2019-04-16T04:44:42.113Z,1021.94
2019-04-16T04:45:42.079Z,1021.90
2019-04-16T04:46:43.187Z,1021.88
2019-04-16T04:47:42.012Z,1021.82
2019-04-16T04:48:41.984Z,1021.81
2019-04-16T04:49:41.946Z,1021.85
2019-04-16T04:50:41.916Z,1021.84
2019-04-16T04:51:43.452Z,1021.91
2019-04-16T04:52:43.196Z,1021.85
2019-04-16T04:53:41.816Z,1021.84
2019-04-16T04:54:41.785Z,1021.83
2019-04-16T04:55:41.748Z,1021.83
2019-04-16T04:56:41.717Z,1021.81
2019-04-16T04:57:41.683Z,1021.83
2019-04-16T04:58:41.651Z,1021.85
2019-04-16T04:59:41.620Z,1021.85
2019-04-16T05:00:41.584Z,1021.86
2019-04-16T05:01:42.606Z,1021.84
2019-04-16T05:02:43.764Z,1021.84
2019-04-16T05:03:41.493Z,1021.83
2019-04-16T05:04:41.455Z,1021.81
2019-04-16T05:05:41.427Z,1021.82
2019-04-16T05:06:41.388Z,1021.83
2019-04-16T05:07:41.356Z,1021.88
2019-04-16T05:08:41.322Z,1021.91
2019-04-16T05:09:41.291Z,1021.89
2019-04-16T05:10:43.394Z,1021.88
2019-04-16T05:11:41.225Z,1021.84
2019-04-16T05:12:41.192Z,1021.84
2019-04-16T05:13:41.159Z,1021.87
2019-04-16T05:14:41.171Z,1021.89
2019-04-16T05:15:41.093Z,1021.87
2019-04-16T05:16:41.061Z,1021.96
2019-04-16T05:17:41.030Z,1021.95
2019-04-16T05:18:41.856Z,1022.01
2019-04-16T05:19:43.771Z,1021.98
2019-04-16T05:20:40.931Z,1021.96
2019-04-16T05:21:40.898Z,1021.99
2019-04-16T05:22:40.867Z,1021.99
2019-04-16T05:23:40.835Z,1021.99
2019-04-16T05:24:40.803Z,1021.99
2019-04-16T05:25:40.773Z,1022.01
2019-04-16T05:26:40.739Z,1022.02
2019-04-16T05:27:41.605Z,1021.99
2019-04-16T05:28:44.462Z,1021.94
2019-04-16T05:29:40.671Z,1022.00
2019-04-16T05:30:40.612Z,1021.97
2019-04-16T05:31:40.611Z,1021.98
2019-04-16T05:32:40.551Z,1021.97
2019-04-16T05:33:40.518Z,1022.02
2019-04-16T05:34:40.490Z,1022.03
2019-04-16T05:35:42.311Z,1021.99
2019-04-16T05:36:46.493Z,1022.00
2019-04-16T05:37:40.397Z,1022.07
2019-04-16T05:38:40.363Z,1022.08
2019-04-16T05:39:40.334Z,1022.02
2019-04-16T05:40:40.506Z,1022.02
2019-04-16T05:41:40.273Z,1022.09
2019-04-16T05:42:40.247Z,1022.13
2019-04-16T05:43:40.215Z,1022.13
2019-04-16T05:44:40.192Z,1022.16
2019-04-16T05:45:40.152Z,1022.17
2019-04-16T05:46:41.441Z,1022.21
2019-04-16T05:47:40.092Z,1022.19
2019-04-16T05:48:40.062Z,1022.25
2019-04-16T05:49:40.031Z,1022.26
2019-04-16T05:50:40.002Z,1022.22
2019-04-16T05:51:39.971Z,1022.28
2019-04-16T05:52:39.947Z,1022.27
2019-04-16T05:53:40.906Z,1022.25
2019-04-16T05:54:41.436Z,1022.30
2019-04-16T05:55:39.859Z,1022.24
2019-04-16T05:56:39.827Z,1022.28
2019-04-16T05:57:39.802Z,1022.31
2019-04-16T05:58:39.769Z,1022.30
2019-04-16T05:59:39.742Z,1022.31
2019-04-16T06:00:41.738Z,1022.36
2019-04-16T06:01:42.366Z,1022.35
2019-04-16T06:02:39.653Z,1022.32
2019-04-16T06:16:25.196Z,1022.36
2019-04-16T06:17:25.240Z,1022.37
2019-04-16T06:18:22.534Z,1022.40
2019-04-16T06:19:22.504Z,1022.40
2019-04-16T06:20:22.476Z,1022.38
2019-04-16T06:21:25.492Z,1022.41
2019-04-16T06:22:25.439Z,1022.44
2019-04-16T06:23:22.662Z,1022.39
2019-04-16T06:24:22.362Z,1022.38
2019-04-16T06:25:22.342Z,1022.40
2019-04-16T06:26:22.307Z,1022.38
2019-04-16T06:27:22.278Z,1022.39
2019-04-16T06:28:22.453Z,1022.42
2019-04-16T06:29:22.390Z,1022.49
2019-04-16T06:31:05.645Z,1022.42
2019-04-16T06:32:04.758Z,1022.48
2019-04-16T06:33:04.530Z,1022.49
2019-04-16T06:34:47.093Z,1022.47
2019-04-16T06:35:47.066Z,1022.45
2019-04-16T06:36:47.038Z,1022.46
2019-04-16T06:37:47.011Z,1022.46
2019-04-16T06:38:46.983Z,1022.48
2019-04-16T06:39:46.959Z,1022.48
2019-04-16T06:40:46.729Z,1022.46
2019-04-16T06:41:52.547Z,1022.51
2019-04-16T06:42:46.875Z,1022.52
2019-04-16T06:43:46.848Z,1022.47
2019-04-16T06:44:46.823Z,1022.53
2019-04-16T06:45:46.794Z,1022.51
2019-04-16T06:46:46.769Z,1022.51
2019-04-16T06:47:46.744Z,1022.51
2019-04-16T06:48:46.786Z,1022.55
2019-04-16T06:49:50.498Z,1022.54
2019-04-16T06:50:46.660Z,1022.56
2019-04-16T06:51:46.432Z,1022.59
2019-04-16T06:52:48.970Z,1022.62
2019-04-16T06:53:46.381Z,1022.59
2019-04-16T06:54:46.353Z,1022.58
2019-04-16T06:55:46.529Z,1022.57
2019-04-16T06:56:46.301Z,1022.57
2019-04-16T06:57:46.271Z,1022.57
2019-04-16T06:58:51.400Z,1022.51
2019-04-16T06:59:46.221Z,1022.53
2019-04-16T07:00:46.197Z,1022.57
2019-04-16T07:01:46.173Z,1022.56
2019-04-16T07:03:01.378Z,1022.48
2019-04-16T07:03:46.118Z,1022.48
2019-04-16T07:04:46.103Z,1022.49
2019-04-16T07:05:46.081Z,1022.51
2019-04-16T07:06:46.044Z,1022.52
2019-04-16T07:07:46.908Z,1022.56
2019-04-16T07:08:49.782Z,1022.52
2019-04-16T07:09:46.104Z,1022.53
2019-04-16T07:10:45.938Z,1022.55
2019-04-16T07:11:54.237Z,1022.50
2019-04-16T07:12:45.991Z,1022.54
2019-04-16T07:13:46.067Z,1022.51
2019-04-16T07:15:29.001Z,1022.46
2019-04-16T07:17:53.189Z,1022.36
2019-04-16T07:18:53.162Z,1022.40
2019-04-16T07:19:52.934Z,1022.48
2019-04-16T07:22:21.329Z,1022.44
2019-04-16T07:23:17.789Z,1022.40
2019-04-16T07:24:17.723Z,1022.35
2019-04-16T07:25:18.242Z,1022.36
2019-04-16T07:26:17.589Z,1022.39
2019-04-16T07:27:20.213Z,1022.39
2019-04-16T07:28:17.780Z,1022.38
2019-04-16T07:29:17.609Z,1022.36
2019-04-16T07:30:20.877Z,1022.40
2019-04-16T07:31:32.841Z,1022.40
2019-04-16T07:32:17.505Z,1022.43
2019-04-16T07:33:17.628Z,1022.44
2019-04-16T07:34:17.393Z,1022.45
2019-04-16T07:35:17.383Z,1022.46
2019-04-16T07:36:17.345Z,1022.49
2019-04-16T07:37:17.522Z,1022.47
2019-04-16T07:38:59.894Z,1022.55
2019-04-16T07:39:59.865Z,1022.50
2019-04-16T07:40:59.840Z,1022.50
2019-04-16T07:42:59.793Z,1022.55
2019-04-16T07:43:47.020Z,1022.55
2019-04-16T07:44:04.378Z,1022.63
2019-04-16T07:44:59.747Z,1022.59
2019-04-16T07:45:59.519Z,1022.59
2019-04-16T07:46:59.527Z,1022.61
2019-04-16T07:47:59.470Z,1022.69
2019-04-16T07:48:59.449Z,1022.70
2019-04-16T07:50:42.015Z,1022.69
2019-04-16T07:51:41.991Z,1022.69
2019-04-16T07:52:42.612Z,1022.74
2019-04-16T07:53:41.743Z,1022.72
2019-04-16T07:54:41.717Z,1022.77
2019-04-16T07:55:41.697Z,1022.76
2019-04-16T07:56:41.874Z,1022.77
2019-04-16T07:57:41.645Z,1022.78
2019-04-16T07:58:41.825Z,1022.77
2019-04-16T07:59:41.602Z,1022.78
2019-04-16T08:00:44.399Z,1022.80
2019-04-16T08:01:44.030Z,1022.78
2019-04-16T08:02:41.732Z,1022.80
2019-04-16T08:05:09.803Z,1022.79
2019-04-16T08:06:06.470Z,1022.72
2019-04-16T08:07:06.449Z,1022.80
2019-04-16T08:08:06.220Z,1022.75
2019-04-16T08:09:06.196Z,1022.79
2019-04-16T08:10:06.173Z,1022.80
2019-04-16T08:11:06.151Z,1022.83
2019-04-16T08:12:11.166Z,1022.75
2019-04-16T08:13:06.104Z,1022.80
2019-04-16T08:14:09.819Z,1022.84
2019-04-16T08:15:13.300Z,1022.81
2019-04-16T08:16:06.039Z,1022.85
2019-04-16T08:17:06.017Z,1022.83
2019-04-16T08:18:05.991Z,1022.82
2019-04-16T08:19:05.968Z,1022.80
2019-04-16T08:20:05.949Z,1022.79
2019-04-16T08:21:11.037Z,1022.80
2019-04-16T08:22:06.155Z,1022.78
2019-04-16T08:23:05.983Z,1022.79
2019-04-16T08:24:06.056Z,1022.77
2019-04-16T08:25:05.836Z,1022.80
2019-04-16T08:26:11.516Z,1022.82
2019-04-16T08:27:09.465Z,1022.76
2019-04-16T08:28:07.464Z,1022.83
2019-04-16T08:29:05.742Z,1022.81
2019-04-16T08:30:06.107Z,1022.80
2019-04-16T08:31:10.509Z,1022.87
2019-04-16T08:32:05.924Z,1022.83
2019-04-16T08:33:05.854Z,1022.84
2019-04-16T08:34:05.631Z,1022.89
2019-04-16T08:35:05.622Z,1022.90
2019-04-16T08:36:05.585Z,1022.95
2019-04-16T08:37:08.041Z,1022.97
2019-04-16T08:38:05.573Z,1022.98
2019-04-16T08:39:06.640Z,1023.00
2019-04-16T08:40:05.503Z,1023.04
2019-04-16T08:41:05.477Z,1023.03
2019-04-16T08:42:05.455Z,1023.09
2019-04-16T08:43:05.433Z,1023.08
2019-04-16T08:44:05.614Z,1023.04
2019-04-16T08:45:08.457Z,1023.04
2019-04-16T08:46:10.027Z,1023.01
2019-04-16T08:47:05.347Z,1022.99
2019-04-16T08:48:05.813Z,1023.04
2019-04-16T08:49:05.507Z,1022.99
2019-04-16T08:50:05.282Z,1022.95
2019-04-16T08:51:05.435Z,1022.91
2019-04-16T08:52:09.926Z,1022.89
2019-04-16T08:53:05.224Z,1022.92
2019-04-16T08:54:05.198Z,1022.93
2019-04-16T08:55:05.184Z,1022.91
2019-04-16T08:56:05.156Z,1022.95
2019-04-16T08:57:05.336Z,1022.90
2019-04-16T08:58:06.357Z,1022.88
2019-04-16T08:59:09.796Z,1022.94
2019-04-16T09:00:05.273Z,1022.91
2019-04-16T09:01:47.650Z,1022.95
2019-04-16T09:02:47.632Z,1023.00
2019-04-16T09:03:47.807Z,1023.05
2019-04-16T09:04:47.586Z,1022.98
2019-04-16T09:05:47.570Z,1022.92
2019-04-16T09:06:47.541Z,1022.84
2019-04-16T09:07:50.733Z,1022.86
2019-04-16T09:09:29.902Z,1022.60
2019-04-16T09:10:30.901Z,1022.38
2019-04-16T09:11:29.650Z,1022.29
2019-04-16T09:12:29.739Z,1022.21
2019-04-16T09:13:32.229Z,1022.17
2019-04-16T09:14:29.596Z,1022.09
2019-04-16T09:15:29.569Z,1022.11
2019-04-16T09:16:29.549Z,1022.08
2019-04-16T09:17:29.545Z,1022.09
2019-04-16T09:18:29.711Z,1021.99
2019-04-16T09:19:29.488Z,1021.98
2019-04-16T09:20:29.669Z,1021.98
2019-04-16T09:21:29.452Z,1021.98
2019-04-16T09:22:29.428Z,1021.95
2019-04-16T09:23:29.409Z,1022.00
2019-04-16T09:24:29.391Z,1021.98
2019-04-16T09:25:29.367Z,1021.99
2019-04-16T09:26:29.359Z,1022.01
2019-04-16T09:27:33.684Z,1021.98
2019-04-16T09:28:31.082Z,1021.94
2019-04-16T09:29:29.290Z,1021.99
2019-04-16T09:30:29.271Z,1021.86
2019-04-16T09:31:29.260Z,1021.85
2019-04-16T09:32:29.229Z,1021.87
2019-04-16T09:33:30.378Z,1021.92
2019-04-16T09:34:29.192Z,1021.88
2019-04-16T09:35:29.173Z,1021.86
2019-04-16T09:36:29.153Z,1021.81
2019-04-16T09:37:29.321Z,1021.87
2019-04-16T09:38:29.117Z,1021.86
2019-04-16T09:39:29.123Z,1021.83
2019-04-16T09:40:29.076Z,1021.82
2019-04-16T09:41:29.060Z,1021.82
2019-04-16T09:42:29.042Z,1021.81
2019-04-16T09:43:29.021Z,1021.78
2019-04-16T09:44:31.549Z,1021.79
2019-04-16T09:45:28.977Z,1021.83
2019-04-16T09:46:49.891Z,1021.78
2019-04-16T09:47:32.448Z,1021.78
2019-04-16T09:48:34.074Z,1021.76
2019-04-16T09:49:28.902Z,1021.78
2019-04-16T09:50:28.884Z,1021.80
2019-04-16T09:51:28.870Z,1021.74
2019-04-16T09:52:28.845Z,1021.79
2019-04-16T09:53:34.208Z,1021.81
2019-04-16T09:54:28.807Z,1021.76
2019-04-16T09:55:28.789Z,1021.73
2019-04-16T09:56:29.860Z,1021.78
2019-04-16T09:57:31.409Z,1021.79
2019-04-16T09:58:28.901Z,1021.77
2019-04-16T09:59:28.714Z,1021.75
2019-04-16T10:00:28.900Z,1021.78
2019-04-16T10:01:28.677Z,1021.68
2019-04-16T10:02:28.656Z,1021.69
2019-04-16T10:03:28.986Z,1021.67
2019-04-16T10:04:28.621Z,1021.69
2019-04-16T10:05:29.604Z,1021.71
2019-04-16T10:06:28.583Z,1021.68
2019-04-16T10:07:28.576Z,1021.64
2019-04-16T10:08:29.508Z,1021.61
2019-04-16T10:09:28.534Z,1021.59
2019-04-16T10:10:29.140Z,1021.61
2019-04-16T10:11:28.507Z,1021.61
2019-04-16T10:12:28.519Z,1021.56
2019-04-16T10:13:32.534Z,1021.54
2019-04-16T10:14:28.442Z,1021.55
2019-04-16T10:15:28.414Z,1021.55
2019-04-16T10:16:28.412Z,1021.59
2019-04-16T10:17:28.377Z,1021.53
2019-04-16T10:18:28.358Z,1021.55
2019-04-16T10:19:28.360Z,1021.53
2019-04-16T10:20:28.341Z,1021.43
2019-04-16T10:21:29.249Z,1021.40
2019-04-16T10:22:28.491Z,1021.32
2019-04-16T10:23:28.286Z,1021.41
2019-04-16T10:24:28.251Z,1021.26
2019-04-16T10:25:28.234Z,1021.31
2019-04-16T10:26:28.236Z,1021.25
2019-04-16T10:27:31.222Z,1021.26
2019-04-16T10:28:28.174Z,1021.26
2019-04-16T10:29:28.179Z,1021.22
2019-04-16T10:30:30.001Z,1021.23
2019-04-16T10:31:28.137Z,1021.21
2019-04-16T10:32:28.122Z,1021.20
2019-04-16T10:33:28.104Z,1021.16
2019-04-16T10:34:28.067Z,1021.20
2019-04-16T10:35:28.047Z,1021.18
2019-04-16T10:36:28.029Z,1021.16
2019-04-16T10:37:28.011Z,1021.18
2019-04-16T10:38:28.215Z,1021.13
2019-04-16T10:39:27.997Z,1021.18
2019-04-16T10:40:28.186Z,1021.15
2019-04-16T10:41:27.942Z,1021.15
2019-04-16T10:42:27.931Z,1021.16
2019-04-16T10:43:28.122Z,1021.13
2019-04-16T10:44:27.931Z,1021.10
2019-04-16T10:45:27.899Z,1021.04
2019-04-16T10:46:27.877Z,1021.14
2019-04-16T10:47:27.853Z,1021.12
2019-04-16T10:48:28.046Z,1021.10
2019-04-16T10:49:27.807Z,1021.07
2019-04-16T10:50:27.985Z,1020.95
2019-04-16T10:51:27.970Z,1021.03
2019-04-16T10:52:27.747Z,1021.09
2019-04-16T10:53:27.754Z,1021.11
2019-04-16T10:54:27.713Z,1021.08
2019-04-16T10:55:27.696Z,1021.09
2019-04-16T10:56:27.702Z,1021.17
2019-04-16T10:57:27.665Z,1021.24
2019-04-16T10:58:27.653Z,1021.11
2019-04-16T10:59:27.626Z,1021.17
2019-04-16T11:00:27.612Z,1020.97
2019-04-16T11:01:30.531Z,1021.13
2019-04-16T11:02:28.839Z,1021.01
2019-04-16T11:03:28.778Z,1020.77
2019-04-16T11:04:27.548Z,1021.08
2019-04-16T11:05:27.572Z,1020.95
2019-04-16T11:06:27.533Z,1021.24
2019-04-16T11:07:27.514Z,1021.24
2019-04-16T11:08:27.486Z,1021.25
2019-04-16T11:09:27.455Z,1021.11
2019-04-16T11:10:27.436Z,1021.18
2019-04-16T11:11:27.451Z,1021.33
2019-04-16T11:12:27.440Z,1021.45
2019-04-16T11:13:27.409Z,1021.41
2019-04-16T11:14:27.414Z,1021.53
2019-04-16T11:15:27.355Z,1021.51
2019-04-16T11:16:27.340Z,1021.28
2019-04-16T11:17:27.350Z,1021.52
2019-04-16T11:18:27.312Z,1021.58
2019-04-16T11:19:27.291Z,1021.62
2019-04-16T11:20:27.274Z,1021.65
2019-04-16T11:21:27.249Z,1021.54
2019-04-16T11:22:27.246Z,1021.38
2019-04-16T11:23:27.250Z,1021.30
2019-04-16T11:24:27.213Z,1021.27
2019-04-16T11:25:27.201Z,1021.18
2019-04-16T11:26:27.159Z,1021.05
2019-04-16T11:27:27.142Z,1021.21
2019-04-16T11:28:27.125Z,1021.14
2019-04-16T11:29:27.341Z,1021.11
2019-04-16T11:30:27.105Z,1020.99
2019-04-16T11:31:27.075Z,1021.08
2019-04-16T11:32:27.049Z,1020.83
2019-04-16T11:33:27.653Z,1020.82
2019-04-16T11:34:27.040Z,1020.90
2019-04-16T11:35:27.028Z,1020.85
2019-04-16T11:36:30.539Z,1020.86
2019-04-16T11:37:26.962Z,1020.86
2019-04-16T11:38:26.960Z,1020.75
2019-04-16T11:39:26.949Z,1020.83
2019-04-16T11:40:26.905Z,1020.73
2019-04-16T11:41:26.907Z,1020.80
2019-04-16T11:42:26.886Z,1020.73
2019-04-16T11:43:26.878Z,1020.88
2019-04-16T11:44:26.843Z,1020.78
2019-04-16T11:45:26.836Z,1020.79
2019-04-16T11:46:26.814Z,1020.77
2019-04-16T11:47:28.141Z,1020.82
2019-04-16T11:48:26.804Z,1020.82
2019-04-16T11:49:26.784Z,1020.58
2019-04-16T11:50:26.734Z,1020.72
2019-04-16T11:51:26.748Z,1020.73
2019-04-16T11:52:26.691Z,1020.78
2019-04-16T11:53:26.672Z,1020.37
2019-04-16T11:54:26.684Z,1020.67
2019-04-16T11:55:26.640Z,1020.72
2019-04-16T11:56:26.638Z,1020.72
2019-04-16T11:57:29.377Z,1020.58
2019-04-16T11:58:26.585Z,1020.70
2019-04-16T11:59:26.571Z,1020.75
2019-04-16T12:00:26.599Z,1020.62
2019-04-16T12:01:26.560Z,1020.71
2019-04-16T12:02:26.630Z,1020.73
2019-04-16T12:03:26.510Z,1020.70
2019-04-16T12:04:26.483Z,1020.83
2019-04-16T12:05:26.492Z,1020.65
2019-04-16T12:06:28.383Z,1020.78
2019-04-16T12:07:26.430Z,1020.77
2019-04-16T12:08:26.411Z,1020.89
2019-04-16T12:09:26.394Z,1020.76
2019-04-16T12:10:26.422Z,1020.90
2019-04-16T12:11:26.358Z,1020.92
2019-04-16T12:12:26.343Z,1020.91
2019-04-16T12:13:26.335Z,1020.81
2019-04-16T12:14:30.962Z,1020.83
2019-04-16T12:15:26.283Z,1020.97
2019-04-16T12:16:26.305Z,1021.08
2019-04-16T12:17:26.253Z,1020.87
2019-04-16T12:18:26.239Z,1021.00
2019-04-16T12:19:26.252Z,1021.03
2019-04-16T12:20:26.216Z,1021.22
2019-04-16T12:21:26.194Z,1021.30
2019-04-16T12:22:26.170Z,1021.28
2019-04-16T12:23:26.189Z,1021.22
2019-04-16T12:24:26.141Z,1021.27
2019-04-16T12:25:26.686Z,1021.28
2019-04-16T12:26:26.088Z,1021.43
2019-04-16T12:27:26.068Z,1021.56